Time;durP1;ratioP1;P1;durP2;ratioP2;P2;SDS_P1;SDS_P2;PMS_P1;PMS_P2;Temp;Humidity;BMP_temperature;BMP_pressure;BME280_temperature;BME280_humidity;BME280_pressure;Samples;Min_cycle;Max_cycle;Signal;HPM_P1;HPM_P2
2020/12/06 00:00:29;;;;;;;38.58;15.80;;;;;;;3.64;85.76;99313.36;1818494;78;21205;-81
2020/12/06 00:02:58;;;;;;;38.10;16.80;;;;;;;3.62;85.82;99318.92;1818055;77;21130;-83
2020/12/06 00:05:26;;;;;;;39.20;15.40;;;;;;;3.57;86.44;99317.17;1818890;79;21296;-82
2020/12/06 00:07:54;;;;;;;39.08;17.05;;;;;;;3.56;86.45;99318.45;1816806;79;21280;-81
2020/12/06 00:10:21;;;;;;;38.17;15.93;;;;;;;3.51;87.18;99318.86;1815750;78;21260;-81
2020/12/06 00:12:48;;;;;;;53.55;20.75;;;;;;;3.49;87.00;99314.13;1817417;78;21130;-83
2020/12/06 00:15:15;;;;;;;37.67;15.53;;;;;;;3.49;85.94;99328.27;1819796;79;21237;-81
2020/12/06 00:17:42;;;;;;;28.85;13.18;;;;;;;3.43;87.45;99323.09;1818835;79;21237;-82
2020/12/06 00:20:11;;;;;;;25.20;11.03;;;;;;;3.46;85.42;99333.38;1820596;79;21272;-80
2020/12/06 00:22:39;;;;;;;43.02;16.77;;;;;;;3.45;85.26;99338.95;1819334;79;21268;-82
2020/12/06 00:25:07;;;;;;;37.03;13.88;;;;;;;3.45;86.87;99339.38;1814969;79;21292;-81
2020/12/06 00:27:36;;;;;;;32.55;12.70;;;;;;;3.45;86.11;99333.81;1809944;79;21273;-82
2020/12/06 00:30:09;;;;;;;33.60;13.83;;;;;;;3.48;85.14;99335.12;1818679;79;21551;-82
2020/12/06 00:32:38;;;;;;;35.40;14.55;;;;;;;3.49;86.24;99337.27;1820651;79;21232;-81
2020/12/06 00:35:09;;;;;;;41.18;15.40;;;;;;;3.51;86.65;99340.27;1820720;79;21248;-83
2020/12/06 00:37:39;;;;;;;26.70;12.45;;;;;;;3.52;86.53;99329.56;1820120;79;21276;-83
2020/12/06 00:40:08;;;;;;;31.52;12.28;;;;;;;3.52;86.15;99333.42;1820744;79;21293;-83
2020/12/06 00:42:37;;;;;;;28.87;11.50;;;;;;;3.53;85.57;99346.29;1819144;79;21614;-81
2020/12/06 00:45:11;;;;;;;79.70;31.97;;;;;;;3.59;85.78;99337.77;1786761;78;28198;-85
2020/12/06 00:47:39;;;;;;;61.42;22.10;;;;;;;3.65;85.15;99331.37;1715378;83;21158;-82
2020/12/06 00:50:07;;;;;;;27.85;13.68;;;;;;;3.65;84.78;99336.52;1745702;81;21273;-82
2020/12/06 00:52:37;;;;;;;26.62;12.78;;;;;;;3.56;85.96;99327.05;1756470;81;21248;-82
2020/12/06 00:55:04;;;;;;;31.20;12.90;;;;;;;3.57;84.50;99331.32;1761402;81;21323;-81
2020/12/06 00:57:33;;;;;;;62.25;21.20;;;;;;;3.52;85.39;99330.45;1705750;83;21328;-82
2020/12/06 01:00:01;;;;;;;33.95;14.15;;;;;;;3.48;85.22;99332.96;1741466;82;21311;-82
2020/12/06 01:02:28;;;;;;;30.97;14.00;;;;;;;3.43;86.21;99328.23;1788246;79;21262;-82
2020/12/06 01:04:56;;;;;;;34.50;11.12;;;;;;;3.41;85.24;99324.35;1797567;79;21322;-83
2020/12/06 01:07:23;;;;;;;35.88;14.25;;;;;;;3.34;87.00;99332.85;1801251;79;21300;-82
2020/12/06 01:09:50;;;;;;;27.10;11.05;;;;;;;3.33;85.65;99333.72;1809609;79;21522;-82
2020/12/06 01:12:17;;;;;;;23.98;10.15;;;;;;;3.31;86.54;99337.55;1737540;82;21280;-82
2020/12/06 01:14:45;;;;;;;27.60;10.43;;;;;;;3.31;86.67;99327.28;1815825;78;21272;-82
2020/12/06 01:17:15;;;;;;;31.17;11.75;;;;;;;3.29;86.40;99334.11;1785708;79;21261;-82
2020/12/06 01:19:43;;;;;;;29.32;11.38;;;;;;;3.32;86.16;99338.41;1804436;79;21117;-82
2020/12/06 01:22:10;;;;;;;39.83;12.43;;;;;;;3.32;86.69;99329.41;1804329;79;21236;-82
2020/12/06 01:24:38;;;;;;;26.37;10.75;;;;;;;3.35;87.24;99317.45;1733916;82;21319;-82
2020/12/06 01:27:05;;;;;;;22.80;10.08;;;;;;;3.35;86.98;99322.59;1798259;78;21256;-82
2020/12/06 01:29:33;;;;;;;25.62;10.75;;;;;;;3.37;87.77;99322.18;1802744;79;21248;-82
2020/12/06 01:32:01;;;;;;;24.87;10.78;;;;;;;3.40;87.97;99314.91;1797090;79;21236;-81
2020/12/06 01:34:28;;;;;;;22.20;10.30;;;;;;;3.44;87.17;99322.22;1792154;79;21260;-82
2020/12/06 01:36:56;;;;;;;31.62;11.75;;;;;;;3.48;86.64;99322.28;1797131;79;21266;-82
2020/12/06 01:39:24;;;;;;;22.48;10.40;;;;;;;3.48;87.23;99320.99;1797108;79;21280;-81
2020/12/06 01:41:59;;;;;;;25.62;11.08;;;;;;;3.52;85.85;99312.45;1799804;79;21173;-82
2020/12/06 01:44:28;;;;;;;24.30;10.35;;;;;;;3.49;86.70;99310.28;1736804;82;21331;-81
2020/12/06 01:46:56;;;;;;;24.70;10.98;;;;;;;3.48;86.36;99307.25;1751585;81;21264;-82
2020/12/06 01:49:35;;;;;;;29.48;13.00;;;;;;;3.45;86.25;99314.97;1751591;81;21311;-82
2020/12/06 01:52:00;;;;;;;23.95;10.58;;;;;;;3.37;86.12;99306.76;1752458;81;21294;-81
2020/12/06 01:54:28;;;;;;;27.58;11.30;;;;;;;3.32;86.48;99309.73;1753850;81;21264;-81
2020/12/06 01:56:55;;;;;;;23.83;10.45;;;;;;;3.28;85.89;99319.56;1750404;81;21277;-81
2020/12/06 01:59:23;;;;;;;22.62;10.05;;;;;;;3.24;87.70;99316.50;1727881;81;21278;-82
2020/12/06 02:02:01;;;;;;;22.05;10.03;;;;;;;3.23;87.77;99313.95;1754022;81;21284;-81
2020/12/06 02:04:31;;;;;;;26.85;10.45;;;;;;;3.24;88.14;99320.78;1737948;82;21300;-80
2020/12/06 02:07:00;;;;;;;22.32;10.13;;;;;;;3.26;87.36;99316.09;1746178;81;21339;-82
2020/12/06 02:09:31;;;;;;;22.25;9.80;;;;;;;3.28;87.16;99311.85;1755260;81;21267;-82
2020/12/06 02:11:59;;;;;;;26.07;10.78;;;;;;;3.29;87.15;99310.98;1753658;81;21263;-82
2020/12/06 02:14:27;;;;;;;24.05;9.23;;;;;;;3.30;87.05;99317.86;1725764;81;21259;-80
2020/12/06 02:16:55;;;;;;;21.48;9.95;;;;;;;3.31;86.73;99326.42;1754993;81;21173;-82
2020/12/06 02:19:23;;;;;;;23.22;9.50;;;;;;;3.29;86.77;99319.98;1751784;81;21249;-81
2020/12/06 02:21:51;;;;;;;21.15;10.00;;;;;;;3.29;86.68;99317.84;1752930;81;21291;-82
2020/12/06 02:24:19;;;;;;;23.75;10.03;;;;;;;3.27;86.92;99325.53;1749425;80;21260;-81
2020/12/06 02:26:50;;;;;;;23.87;10.98;;;;;;;3.28;86.59;99318.67;1755418;81;21371;-81
2020/12/06 02:29:21;;;;;;;28.55;11.53;;;;;;;3.24;86.68;99310.51;1743432;81;21224;-81
2020/12/06 02:31:48;;;;;;;21.62;10.88;;;;;;;3.21;86.42;99318.21;1736311;82;21221;-82
2020/12/06 02:34:16;;;;;;;27.50;11.83;;;;;;;3.23;84.95;99321.22;1759410;81;21323;-82
2020/12/06 02:36:44;;;;;;;25.62;11.15;;;;;;;3.13;86.88;99324.56;1738498;82;21694;-82
2020/12/06 02:39:13;;;;;;;25.30;11.40;;;;;;;3.09;86.54;99315.11;1739053;82;21149;-82
2020/12/06 02:41:44;;;;;;;20.82;10.65;;;;;;;3.04;86.67;99309.91;1734647;81;21228;-82
2020/12/06 02:44:14;;;;;;;28.65;11.10;;;;;;;2.98;87.27;99326.16;1743153;81;21300;-81
2020/12/06 02:46:42;;;;;;;23.50;10.35;;;;;;;2.94;86.61;99326.95;1750987;81;21328;-83
2020/12/06 02:49:09;;;;;;;21.23;9.55;;;;;;;2.91;86.51;99325.65;1805914;77;21285;-81
2020/12/06 02:51:37;;;;;;;26.17;9.53;;;;;;;2.88;87.37;99318.34;1786179;79;21256;-82
2020/12/06 02:54:05;;;;;;;34.13;12.00;;;;;;;2.88;87.05;99333.74;1803331;79;21320;-82
2020/12/06 02:56:33;;;;;;;35.43;12.65;;;;;;;2.87;87.36;99330.75;1738018;82;21542;-82
2020/12/06 02:59:00;;;;;;;24.40;9.65;;;;;;;2.86;86.78;99318.31;1799468;79;21256;-81
2020/12/06 03:01:32;;;;;;;23.98;9.53;;;;;;;2.84;87.29;99323.86;1794566;79;21236;-82
2020/12/06 03:04:00;;;;;;;23.98;10.45;;;;;;;2.86;86.93;99321.31;1795560;79;21253;-82
2020/12/06 03:06:28;;;;;;;27.85;10.93;;;;;;;2.85;87.09;99314.04;1736191;82;21248;-82
2020/12/06 03:08:55;;;;;;;18.82;8.40;;;;;;;2.82;86.86;99320.41;1791635;79;21320;-82
2020/12/06 03:11:25;;;;;;;23.30;10.40;;;;;;;2.81;87.03;99316.14;1745675;82;21265;-82
2020/12/06 03:13:53;;;;;;;28.05;11.53;;;;;;;2.85;87.11;99323.03;1799925;79;21272;-82
2020/12/06 03:16:21;;;;;;;24.30;10.60;;;;;;;2.86;87.22;99317.46;1800314;77;21237;-82
2020/12/06 03:18:49;;;;;;;26.80;10.55;;;;;;;2.89;86.82;99313.22;1787717;77;21246;-84
2020/12/06 03:21:16;;;;;;;30.52;13.15;;;;;;;2.86;87.15;99314.89;1777670;78;21277;-81
2020/12/06 03:23:43;;;;;;;34.53;14.00;;;;;;;2.88;86.31;99315.77;1788933;79;21268;-83
2020/12/06 03:26:11;;;;;;;20.20;9.55;;;;;;;2.84;86.32;99312.73;1720419;83;21291;-82
2020/12/06 03:28:38;;;;;;;27.05;11.30;;;;;;;2.79;87.03;99313.98;1800846;79;21304;-81
2020/12/06 03:31:05;;;;;;;32.13;12.43;;;;;;;2.76;87.56;99319.07;1794121;79;21233;-80
2020/12/06 03:33:34;;;;;;;23.85;11.18;;;;;;;2.73;86.97;99312.64;1788899;79;21249;-82
2020/12/06 03:36:02;;;;;;;22.82;9.88;;;;;;;2.66;88.08;99311.70;1799480;79;21268;-82
2020/12/06 03:38:29;;;;;;;23.12;9.35;;;;;;;2.66;88.03;99323.68;1795576;79;21244;-82
2020/12/06 03:40:56;;;;;;;21.97;9.58;;;;;;;2.65;87.72;99319.41;1725599;81;21193;-81
2020/12/06 03:43:24;;;;;;;30.62;10.03;;;;;;;2.63;87.63;99315.53;1744472;81;21303;-82
2020/12/06 03:45:51;;;;;;;24.70;10.18;;;;;;;2.64;87.25;99309.97;1737519;80;21224;-81
2020/12/06 03:48:18;;;;;;;24.20;10.38;;;;;;;2.56;88.19;99302.19;1735692;82;21312;-82
2020/12/06 03:50:46;;;;;;;22.35;9.98;;;;;;;2.57;87.34;99308.63;1739695;82;21335;-83
2020/12/06 03:53:13;;;;;;;21.73;9.18;;;;;;;2.59;86.83;99317.63;1758494;81;21157;-81
2020/12/06 03:55:40;;;;;;;20.37;9.25;;;;;;;2.57;87.24;99318.89;1765570;80;21324;-81
2020/12/06 03:58:07;;;;;;;25.02;9.53;;;;;;;2.53;87.81;99312.01;1747646;81;21251;-82
2020/12/06 04:00:35;;;;;;;19.40;8.85;;;;;;;2.54;87.38;99310.30;1742553;80;21236;-83
2020/12/06 04:03:03;;;;;;;24.85;11.22;;;;;;;2.56;86.99;99314.59;1735787;82;21277;-83
2020/12/06 04:05:30;;;;;;;24.60;10.18;;;;;;;2.58;86.65;99313.33;1747732;81;21160;-81
2020/12/06 04:07:57;;;;;;;24.65;10.40;;;;;;;2.58;86.60;99315.47;1747195;81;22041;-81
2020/12/06 04:10:25;;;;;;;28.45;12.43;;;;;;;2.54;87.64;99316.71;1746426;81;21290;-82
2020/12/06 04:12:53;;;;;;;25.20;11.30;;;;;;;2.51;87.31;99313.70;1722392;83;21254;-82
2020/12/06 04:15:21;;;;;;;19.95;10.13;;;;;;;2.50;86.77;99311.11;1743944;81;21292;-82
2020/12/06 04:17:48;;;;;;;18.42;9.28;;;;;;;2.45;87.66;99316.20;1734761;81;21263;-81
2020/12/06 04:20:15;;;;;;;25.27;10.53;;;;;;;2.43;87.97;99322.14;1749662;81;21307;-82
2020/12/06 04:22:43;;;;;;;23.05;8.65;;;;;;;2.43;85.94;99323.02;1756879;81;21252;-82
2020/12/06 04:25:11;;;;;;;22.00;9.23;;;;;;;2.38;86.86;99315.67;1747118;81;21284;-82
2020/12/06 04:27:38;;;;;;;22.00;8.95;;;;;;;2.37;87.38;99317.82;1740741;79;21282;-82
2020/12/06 04:30:05;;;;;;;25.27;9.75;;;;;;;2.36;88.18;99328.91;1746162;79;21639;-81
2020/12/06 04:32:33;;;;;;;23.45;9.43;;;;;;;2.39;86.83;99316.13;1749075;81;21565;-81
2020/12/06 04:35:00;;;;;;;21.82;9.73;;;;;;;2.35;88.57;99315.66;1752581;81;21137;-82
2020/12/06 04:37:27;;;;;;;23.12;9.48;;;;;;;2.34;88.94;99314.77;1749880;81;21311;-80
2020/12/06 04:39:54;;;;;;;19.98;9.00;;;;;;;2.38;87.79;99325.52;1750732;81;21151;-81
2020/12/06 04:42:23;;;;;;;24.70;9.35;;;;;;;2.39;87.76;99327.68;1742522;81;21264;-82
2020/12/06 04:44:50;;;;;;;19.75;8.30;;;;;;;2.40;87.68;99329.39;1749221;82;21232;-82
2020/12/06 04:47:35;;;;;;;21.40;8.68;;;;;;;2.38;87.71;99325.94;1754542;80;21260;-82
2020/12/06 04:50:04;;;;;;;22.85;8.75;;;;;;;2.39;87.63;99323.83;1732544;82;21286;-81
2020/12/06 04:52:37;;;;;;;19.90;9.98;;;;;;;2.35;88.10;99319.08;1749554;80;21232;-83
2020/12/06 04:55:08;;;;;;;23.32;9.85;;;;;;;2.37;87.66;99320.39;1781486;79;21270;-83
2020/12/06 04:57:38;;;;;;;19.85;10.20;;;;;;;2.40;87.35;99322.97;1805419;79;21289;-82
2020/12/06 05:00:09;;;;;;;18.30;9.53;;;;;;;2.34;87.56;99321.19;1789447;79;21158;-81
2020/12/06 05:02:42;;;;;;;24.18;9.35;;;;;;;2.32;87.94;99323.31;1784859;79;21244;-83
2020/12/06 05:05:13;;;;;;;18.35;8.68;;;;;;;2.31;87.39;99325.45;1709714;81;21193;-82
2020/12/06 05:07:44;;;;;;;20.43;7.80;;;;;;;2.28;88.14;99325.40;1749017;81;21247;-84
2020/12/06 05:10:12;;;;;;;21.23;8.65;;;;;;;2.24;88.33;99319.80;1805039;79;21228;-81
2020/12/06 05:12:39;;;;;;;22.55;9.18;;;;;;;2.21;88.16;99325.76;1797576;78;21221;-80
2020/12/06 05:15:06;;;;;;;24.18;9.43;;;;;;;2.19;87.91;99340.27;1807717;79;21273;-82
2020/12/06 05:17:33;;;;;;;24.55;9.85;;;;;;;2.05;87.92;99322.14;1791870;79;21283;-82
2020/12/06 05:20:11;;;;;;;25.82;10.60;;;;;;;2.11;88.39;99335.44;1798660;77;21265;-83
2020/12/06 05:22:47;;;;;;;22.15;9.28;;;;;;;2.13;87.55;99327.34;1720060;80;21323;-83
2020/12/06 05:25:16;;;;;;;22.93;9.35;;;;;;;2.11;87.61;99333.75;1720526;83;21273;-82
2020/12/06 05:27:44;;;;;;;22.27;9.40;;;;;;;2.09;87.94;99334.16;1742292;80;21325;-81
2020/12/06 05:30:12;;;;;;;27.55;10.03;;;;;;;2.10;87.88;99337.14;1737837;81;21283;-82
2020/12/06 05:32:40;;;;;;;22.40;8.88;;;;;;;2.11;88.15;99336.32;1725169;81;21200;-83
2020/12/06 05:35:09;;;;;;;20.60;9.23;;;;;;;2.11;88.64;99331.19;1721492;81;21272;-83
2020/12/06 05:37:38;;;;;;;18.73;9.50;;;;;;;2.13;88.63;99337.59;1762001;78;21281;-83
2020/12/06 05:40:11;;;;;;;19.85;9.58;;;;;;;2.15;88.65;99340.64;1731473;82;21347;-83
2020/12/06 05:42:42;;;;;;;25.20;10.65;;;;;;;2.17;88.48;99335.11;1757018;79;21230;-81
2020/12/06 05:45:11;;;;;;;18.05;8.73;;;;;;;2.13;88.18;99332.07;1784195;79;21271;-82
2020/12/06 05:47:39;;;;;;;27.50;11.48;;;;;;;2.22;88.05;99340.72;1761178;79;21251;-82
2020/12/06 05:50:07;;;;;;;20.62;10.43;;;;;;;2.24;87.61;99333.47;1777250;80;21276;-83
2020/12/06 05:52:35;;;;;;;29.12;12.15;;;;;;;2.19;87.76;99330.86;1769102;80;21264;-82
2020/12/06 05:55:04;;;;;;;21.02;10.93;;;;;;;2.17;88.37;99328.70;1774224;80;21549;-81
2020/12/06 05:57:33;;;;;;;22.93;11.28;;;;;;;2.15;88.38;99315.42;1780212;80;21312;-82
2020/12/06 06:00:01;;;;;;;25.72;10.08;;;;;;;2.15;87.83;99326.54;1768508;80;21224;-83
2020/12/06 06:02:32;;;;;;;24.75;9.23;;;;;;;2.15;87.42;99326.97;1775522;80;21263;-82
2020/12/06 06:05:04;;;;;;;22.02;10.00;;;;;;;2.12;88.23;99320.07;1758585;80;21228;-82
2020/12/06 06:07:34;;;;;;;20.55;9.88;;;;;;;2.11;88.37;99327.34;1771171;79;21272;-82
2020/12/06 06:10:06;;;;;;;23.42;10.08;;;;;;;2.13;87.72;99332.07;1754363;80;21275;-79
2020/12/06 06:12:38;;;;;;;22.80;10.00;;;;;;;2.11;88.58;99323.50;1773152;80;21335;-79
2020/12/06 06:15:05;;;;;;;23.47;9.98;;;;;;;2.13;88.39;99329.50;1762937;80;21245;-82
2020/12/06 06:17:32;;;;;;;18.52;9.18;;;;;;;2.16;88.10;99325.68;1751554;80;21570;-83
2020/12/06 06:20:00;;;;;;;19.90;9.65;;;;;;;2.19;87.89;99330.01;1773468;80;21255;-82
2020/12/06 06:22:38;;;;;;;20.57;9.05;;;;;;;2.19;88.37;99330.01;1760994;80;21342;-84
2020/12/06 06:25:07;;;;;;;24.55;9.65;;;;;;;2.22;88.39;99335.59;1784427;80;21288;-82
2020/12/06 06:27:39;;;;;;;21.37;9.40;;;;;;;2.25;88.34;99333.05;1762521;80;21286;-82
2020/12/06 06:30:11;;;;;;;28.60;10.48;;;;;;;2.28;88.22;99339.51;1775232;80;21213;-83
2020/12/06 06:32:40;;;;;;;20.23;10.43;;;;;;;2.36;87.98;99328.91;1767932;80;21288;-82
2020/12/06 06:35:09;;;;;;;25.52;10.85;;;;;;;2.38;88.02;99333.21;1781993;80;21248;-83
2020/12/06 06:37:38;;;;;;;20.12;9.50;;;;;;;2.42;87.94;99331.98;1768567;80;21640;-82
2020/12/06 06:40:09;;;;;;;19.00;10.08;;;;;;;2.42;87.84;99341.81;1770394;80;21279;-81
2020/12/06 06:42:38;;;;;;;23.30;9.80;;;;;;;2.44;87.96;99340.55;1753337;80;21279;-84
2020/12/06 06:45:08;;;;;;;24.32;9.75;;;;;;;2.48;87.32;99343.59;1776308;80;21284;-82
2020/12/06 06:47:41;;;;;;;23.57;10.65;;;;;;;2.47;87.64;99344.45;1722877;82;21240;-82
2020/12/06 06:50:11;;;;;;;19.92;9.58;;;;;;;2.50;87.27;99354.30;1711945;83;21142;-82
2020/12/06 06:52:42;;;;;;;23.90;9.73;;;;;;;2.53;86.90;99348.38;1741995;82;21228;-83
2020/12/06 06:55:10;;;;;;;29.57;10.28;;;;;;;2.52;87.41;99347.91;1740079;78;21237;-83
2020/12/06 06:57:40;;;;;;;20.27;9.88;;;;;;;2.58;87.14;99353.97;1737009;81;21253;-81
2020/12/06 07:00:08;;;;;;;23.90;10.13;;;;;;;2.63;87.27;99347.63;1713773;83;21156;-82
2020/12/06 07:02:38;;;;;;;33.15;10.18;;;;;;;2.67;87.50;99344.67;1742799;82;21303;-83
2020/12/06 07:05:21;;;;;;;21.48;9.25;;;;;;;2.74;87.34;99346.01;1738820;81;21275;-83
2020/12/06 07:07:53;;;;;;;17.02;8.43;;;;;;;2.84;87.09;99350.82;1741246;82;21740;-84
2020/12/06 07:10:23;;;;;;;21.05;8.83;;;;;;;2.89;87.09;99343.19;1741408;78;21225;-82
2020/12/06 07:12:54;;;;;;;19.92;9.13;;;;;;;2.97;86.84;99345.40;1740980;82;21291;-83
2020/12/06 07:15:30;;;;;;;30.27;12.53;;;;;;;3.10;86.75;99342.07;1880053;74;23075;-83
2020/12/06 07:18:00;;;;;;;22.52;10.88;;;;;;;3.11;86.54;99345.53;1846926;77;21817;-83
2020/12/06 07:20:29;;;;;;;24.87;12.07;;;;;;;3.16;86.48;99348.58;1854969;77;21257;-82
2020/12/06 07:22:56;;;;;;;27.10;12.65;;;;;;;3.23;86.25;99343.49;1846601;77;21218;-82
2020/12/06 07:25:25;;;;;;;24.72;11.60;;;;;;;3.27;85.75;99343.52;1860209;77;21249;-82
2020/12/06 07:27:52;;;;;;;29.60;12.33;;;;;;;3.27;85.92;99342.67;1840780;77;21312;-83
2020/12/06 07:30:20;;;;;;;27.20;12.43;;;;;;;3.28;85.93;99337.55;1843056;77;21345;-82
2020/12/06 07:32:48;;;;;;;27.82;12.10;;;;;;;3.33;85.83;99333.72;1847892;77;21984;-82
2020/12/06 07:35:17;;;;;;;20.20;9.73;;;;;;;3.35;85.76;99333.31;1766471;77;21132;-85
2020/12/06 07:37:45;;;;;;;24.92;11.30;;;;;;;3.42;85.81;99336.77;1736514;82;21247;-82
2020/12/06 07:40:14;;;;;;;28.60;12.05;;;;;;;3.51;85.35;99339.42;1736146;83;21302;-82
2020/12/06 07:42:41;;;;;;;23.30;9.78;;;;;;;3.56;85.50;99341.59;1736683;82;21239;-82
2020/12/06 07:45:09;;;;;;;25.15;12.05;;;;;;;3.61;85.54;99332.64;1736398;83;21240;-82
2020/12/06 07:47:37;;;;;;;24.70;11.70;;;;;;;3.67;85.68;99333.53;1736197;83;21273;-81
2020/12/06 07:50:06;;;;;;;21.75;10.58;;;;;;;3.75;85.43;99328.01;1735884;83;21322;-81
2020/12/06 07:52:35;;;;;;;22.85;10.10;;;;;;;3.83;85.32;99334.92;1735909;83;21363;-81
2020/12/06 07:55:07;;;;;;;23.40;10.65;;;;;;;3.90;85.11;99331.52;1731476;83;21292;-82
2020/12/06 07:57:53;;;;;;;21.97;11.18;;;;;;;4.03;85.00;99326.88;1876810;74;22938;-86
2020/12/06 08:00:23;;;;;;;23.02;11.65;;;;;;;4.06;84.82;99329.48;1845073;77;21709;-83
2020/12/06 08:03:00;;;;;;;26.55;12.60;;;;;;;4.12;84.93;99329.50;1851711;75;21236;-82
2020/12/06 08:05:32;;;;;;;32.33;14.43;;;;;;;4.18;84.75;99329.53;1847142;77;21658;-82
2020/12/06 08:08:13;;;;;;;28.23;13.90;;;;;;;4.26;84.54;99314.53;1849054;77;21692;-86
2020/12/06 08:10:41;;;;;;;24.72;11.85;;;;;;;4.30;84.58;99319.72;1857130;77;21279;-82
2020/12/06 08:13:12;;;;;;;30.23;12.82;;;;;;;4.37;84.68;99311.58;1851072;77;22368;-81
2020/12/06 08:15:41;;;;;;;26.40;10.65;;;;;;;4.43;84.72;99307.73;1841933;77;21300;-82
2020/12/06 08:18:20;;;;;;;24.77;11.08;;;;;;;4.50;84.65;99311.20;1851406;75;21300;-82
2020/12/06 08:20:54;;;;;;;25.72;10.10;;;;;;;4.59;84.29;99309.92;1850524;77;21225;-82
2020/12/06 08:23:37;;;;;;;18.75;10.05;;;;;;;4.65;84.10;99297.49;1846033;75;21301;-83
2020/12/06 08:26:05;;;;;;;23.52;10.48;;;;;;;4.74;84.36;99297.52;1854431;76;21252;-82
2020/12/06 08:28:32;;;;;;;19.25;10.38;;;;;;;4.86;84.32;99296.25;1849720;77;21258;-82
2020/12/06 08:31:00;;;;;;;24.05;10.25;;;;;;;4.95;84.37;99297.95;1850736;77;21241;-83
2020/12/06 08:33:28;;;;;;;22.93;10.28;;;;;;;5.05;83.96;99298.83;1846969;75;21284;-82
2020/12/06 08:35:56;;;;;;;24.90;12.37;;;;;;;5.17;83.78;99296.25;1845378;77;21733;-85
2020/12/06 08:38:30;;;;;;;21.02;11.00;;;;;;;5.29;83.46;99295.39;1843199;76;21162;-85
2020/12/06 08:41:11;;;;;;;22.48;11.57;;;;;;;5.43;83.04;99295.38;1893071;75;23038;-84
2020/12/06 08:44:05;;;;;;;22.05;11.15;;;;;;;5.46;82.85;99291.08;1876574;76;21196;-81
2020/12/06 08:46:33;;;;;;;25.15;11.33;;;;;;;5.56;82.71;99293.22;1875033;76;21211;-82
2020/12/06 08:49:15;;;;;;;22.37;10.88;;;;;;;5.67;82.19;99289.32;1867603;76;21215;-81
2020/12/06 08:51:52;;;;;;;19.73;10.03;;;;;;;5.74;82.58;99280.28;1873004;76;21267;-83
2020/12/06 08:54:35;;;;;;;21.40;9.80;;;;;;;5.82;82.21;99283.28;1878811;76;21231;-82
2020/12/06 08:57:14;;;;;;;22.27;10.10;;;;;;;5.94;82.07;99278.08;1873762;76;21251;-82
2020/12/06 08:59:43;;;;;;;20.27;9.85;;;;;;;6.06;82.01;99278.05;1866462;76;21275;-81
2020/12/06 09:02:24;;;;;;;20.52;9.83;;;;;;;6.18;81.99;99268.97;1855549;76;21231;-83
2020/12/06 09:04:52;;;;;;;20.95;9.25;;;;;;;6.32;81.78;99268.05;1880402;76;21219;-82
2020/12/06 09:07:19;;;;;;;16.93;7.80;;;;;;;6.44;81.49;99262.81;1880052;76;21216;-82
2020/12/06 09:09:46;;;;;;;20.05;9.13;;;;;;;6.57;81.39;99255.42;1883276;76;21536;-82
2020/12/06 09:12:14;;;;;;;18.10;8.88;;;;;;;6.69;81.26;99264.82;1882609;76;21228;-82
2020/12/06 09:14:41;;;;;;;19.32;9.53;;;;;;;6.83;81.39;99260.00;1879038;76;21227;-81
2020/12/06 09:17:08;;;;;;;17.45;8.98;;;;;;;6.98;80.15;99253.40;1870298;76;21125;-81
2020/12/06 09:19:36;;;;;;;17.37;8.78;;;;;;;7.06;79.67;99241.70;1880426;76;21275;-82
2020/12/06 09:22:03;;;;;;;18.92;9.50;;;;;;;7.15;79.23;99238.61;1874000;76;21285;-81
2020/12/06 09:24:30;;;;;;;32.03;14.25;;;;;;;7.28;79.65;99239.37;1875574;76;21251;-80
2020/12/06 09:26:57;;;;;;;37.48;18.37;;;;;;;7.39;79.85;99228.06;1875367;76;21274;-83
2020/12/06 09:29:25;;;;;;;17.05;8.40;;;;;;;7.48;79.11;99217.59;1873897;76;21258;-82
2020/12/06 09:31:53;;;;;;;18.62;8.38;;;;;;;7.61;78.49;99215.75;1877583;76;21243;-82
2020/12/06 09:34:20;;;;;;;22.70;9.15;;;;;;;7.72;77.84;99206.15;1869864;75;21282;-82
2020/12/06 09:36:47;;;;;;;23.30;10.90;;;;;;;7.86;78.98;99209.83;1868294;76;21258;-81
2020/12/06 09:39:14;;;;;;;20.10;8.30;;;;;;;7.95;78.08;99204.11;1875146;76;21290;-81
2020/12/06 09:41:47;;;;;;;17.37;7.72;;;;;;;8.11;77.98;99193.56;1873471;76;21275;-82
2020/12/06 09:44:14;;;;;;;12.37;6.45;;;;;;;8.21;77.09;99182.64;1864259;76;21131;-82
2020/12/06 09:46:41;;;;;;;18.25;8.80;;;;;;;8.31;76.15;99188.09;1869135;76;21761;-84
2020/12/06 09:49:09;;;;;;;15.90;7.58;;;;;;;8.43;76.58;99188.39;1862438;76;21737;-85
2020/12/06 09:51:36;;;;;;;15.20;6.70;;;;;;;8.52;76.89;99190.86;1873486;76;21835;-85
2020/12/06 09:54:03;;;;;;;15.35;6.80;;;;;;;8.61;76.09;99182.08;1873242;76;21163;-83
2020/12/06 09:56:31;;;;;;;13.90;7.22;;;;;;;8.71;74.54;99174.56;1870654;76;21187;-86
2020/12/06 09:58:58;;;;;;;14.30;6.75;;;;;;;8.82;76.26;99173.95;1870236;76;21140;-84
2020/12/06 10:01:26;;;;;;;11.65;6.05;;;;;;;8.90;74.35;99163.01;1866939;76;21109;-83
2020/12/06 10:03:54;;;;;;;13.28;6.70;;;;;;;8.96;74.42;99162.05;1870106;76;22374;-82
2020/12/06 10:06:24;;;;;;;10.15;6.10;;;;;;;9.04;73.12;99153.69;1865897;76;21125;-83
2020/12/06 10:08:53;;;;;;;10.95;5.70;;;;;;;9.15;73.12;99152.19;1868920;76;21719;-80
2020/12/06 10:11:21;;;;;;;10.60;5.03;;;;;;;9.28;72.14;99145.90;1876305;76;21247;-81
2020/12/06 10:13:49;;;;;;;11.90;5.15;;;;;;;9.42;74.32;99145.63;1870605;76;21282;-81
2020/12/06 10:16:17;;;;;;;10.58;5.58;;;;;;;9.54;73.64;99147.13;1870612;76;21282;-81
2020/12/06 10:18:45;;;;;;;11.30;5.85;;;;;;;9.63;73.14;99144.36;1877830;76;21290;-82
2020/12/06 10:21:15;;;;;;;12.35;6.00;;;;;;;9.73;72.31;99135.95;1874705;76;21320;-82
2020/12/06 10:23:43;;;;;;;16.67;7.97;;;;;;;9.85;70.59;99131.78;1868955;76;21227;-81
2020/12/06 10:26:12;;;;;;;14.25;6.53;;;;;;;9.97;72.07;99128.06;1840683;76;21604;-82
2020/12/06 10:28:39;;;;;;;15.72;6.50;;;;;;;10.10;71.68;99126.03;1875616;75;21294;-81
2020/12/06 10:31:07;;;;;;;9.80;5.67;;;;;;;10.20;72.64;99126.23;1870407;76;21228;-81
2020/12/06 10:33:34;;;;;;;14.90;6.22;;;;;;;10.33;71.24;99112.56;1872721;76;21076;-81
2020/12/06 10:36:02;;;;;;;12.13;6.15;;;;;;;10.41;69.51;99114.98;1865805;76;21175;-81
2020/12/06 10:38:29;;;;;;;13.60;6.33;;;;;;;10.54;71.49;99116.36;1871477;76;21293;-80
2020/12/06 10:40:57;;;;;;;14.90;6.55;;;;;;;10.66;69.35;99107.41;1869616;75;21744;-81
2020/12/06 10:43:24;;;;;;;14.45;5.47;;;;;;;10.79;70.48;99103.61;1870569;76;21250;-82
2020/12/06 10:45:52;;;;;;;11.30;4.67;;;;;;;10.94;69.64;99109.72;1878430;76;21298;-80
2020/12/06 10:48:19;;;;;;;10.23;4.53;;;;;;;11.06;67.40;99102.47;1871344;76;21290;-82
2020/12/06 10:50:53;;;;;;;9.48;5.12;;;;;;;11.19;68.66;99099.10;1879747;76;21252;-82
2020/12/06 10:53:21;;;;;;;9.73;5.22;;;;;;;11.27;66.93;99097.13;1878116;76;21274;-81
2020/12/06 10:55:49;;;;;;;11.28;6.12;;;;;;;11.37;65.72;99099.03;1877042;75;21266;-82
2020/12/06 10:58:16;;;;;;;11.25;6.10;;;;;;;11.48;66.20;99092.63;1875531;76;21563;-83
2020/12/06 11:00:43;;;;;;;18.10;6.17;;;;;;;11.61;65.32;99079.25;1874835;76;21304;-81
2020/12/06 11:03:10;;;;;;;11.93;5.53;;;;;;;11.72;64.66;99080.64;1863817;76;21100;-82
2020/12/06 11:05:39;;;;;;;12.85;6.12;;;;;;;11.85;66.40;99077.66;1878106;76;21278;-82
2020/12/06 11:08:06;;;;;;;10.05;5.00;;;;;;;11.97;63.47;99077.77;1879052;76;21234;-82
2020/12/06 11:10:33;;;;;;;10.55;4.80;;;;;;;12.07;65.65;99070.89;1882730;76;21252;-81
2020/12/06 11:13:00;;;;;;;9.75;4.78;;;;;;;12.19;64.16;99064.45;1879362;76;21274;-82
2020/12/06 11:15:28;;;;;;;7.75;4.10;;;;;;;12.21;60.98;99057.89;1888290;75;21218;-84
2020/12/06 11:17:58;;;;;;;10.45;4.87;;;;;;;12.20;60.75;99059.65;1874360;76;21247;-82
2020/12/06 11:20:25;;;;;;;10.43;4.90;;;;;;;12.27;63.04;99056.38;1875729;76;21262;-84
2020/12/06 11:22:52;;;;;;;8.78;4.03;;;;;;;12.37;63.64;99056.48;1875612;76;21282;-81
2020/12/06 11:25:20;;;;;;;10.63;4.50;;;;;;;12.45;62.40;99044.03;1878416;76;21714;-82
2020/12/06 11:27:47;;;;;;;10.30;4.22;;;;;;;12.47;60.84;99035.74;1876016;76;21723;-81
2020/12/06 11:30:15;;;;;;;10.40;4.47;;;;;;;12.59;62.76;99038.35;1869607;76;21254;-82
2020/12/06 11:32:42;;;;;;;14.60;6.42;;;;;;;12.67;62.76;99042.00;1874079;76;21545;-82
2020/12/06 11:35:11;;;;;;;10.28;5.00;;;;;;;12.74;61.14;99037.83;1874771;76;21121;-82
2020/12/06 11:37:38;;;;;;;11.78;4.62;;;;;;;12.80;59.85;99034.16;1872670;76;21171;-81